Vienna, Virginia
Current Conditions -  °F | °C
As of 5:52 PM on Monday 24 Nov 2014 (Local Time) from KIAD Reporting Station
Clear Clear  
Wind Chill: 65°   Ceiling: Unl
Heat Index: 65°   Visibility: 10mi
Dew Point: 52°   Wind: 9mph
Humidity: 63%   Direction: 190°S
Pressure: 29.68"   Gusts: NA
Location:  38.9°N, 77.26°W
Report Text: KIAD 242252Z 19008KT 10SM CLR 18/11 A2968 RMK AO2 SLP048 T01830111
Loading
Personal Weather Stations






























Interactive Weather Map New forecast layout! Learn more

10-Day Weather Forecast

Advertisements
Track Severe Weather on mobile